createdAt,value
2023-04-08T00:01:42.256Z,16.07
2023-04-08T00:05:03.969Z,16.07
2023-04-08T00:08:25.663Z,14.83
2023-04-08T00:11:48.325Z,15.23
2023-04-08T00:15:10.673Z,15.13
2023-04-08T00:18:32.207Z,14.80
2023-04-08T00:21:54.019Z,15.67
2023-04-08T00:25:16.058Z,15.10
2023-04-08T00:28:39.592Z,15.53
2023-04-08T00:32:00.915Z,15.60
2023-04-08T00:35:22.352Z,15.90
2023-04-08T00:38:43.799Z,14.03
2023-04-08T00:42:05.722Z,14.50
2023-04-08T00:45:28.435Z,14.70
2023-04-08T00:48:50.103Z,15.33
2023-04-08T00:52:11.738Z,15.13
2023-04-08T00:55:33.459Z,14.83
2023-04-08T00:58:55.598Z,15.37
2023-04-08T01:02:26.162Z,14.50
2023-04-08T01:05:57.624Z,21.10
2023-04-08T01:09:22.644Z,14.43
2023-04-08T01:12:51.478Z,15.87
2023-04-08T01:16:17.178Z,14.43
2023-04-08T01:19:44.737Z,14.70
2023-04-08T01:23:14.368Z,15.60
2023-04-08T01:26:38.430Z,14.97
2023-04-08T01:30:02.210Z,15.33
2023-04-08T01:33:28.894Z,14.80
2023-04-08T01:36:52.027Z,14.97
2023-04-08T01:40:14.586Z,15.70
2023-04-08T01:43:39.589Z,15.53
2023-04-08T01:47:02.181Z,16.40
2023-04-08T01:50:24.963Z,16.03
2023-04-08T01:53:46.658Z,16.00
2023-04-08T01:57:12.861Z,14.90
2023-04-08T02:00:37.725Z,14.77
2023-04-08T02:04:00.520Z,15.43
2023-04-08T02:07:22.926Z,16.17
2023-04-08T02:10:44.552Z,14.67
2023-04-08T02:14:06.454Z,16.03
2023-04-08T02:17:36.189Z,14.73
2023-04-08T02:21:03.219Z,14.00
2023-04-08T02:24:25.319Z,15.67
2023-04-08T02:27:48.873Z,15.20
2023-04-08T02:31:13.712Z,15.53
2023-04-08T02:34:41.428Z,15.17
2023-04-08T02:38:03.340Z,14.37
2023-04-08T02:41:24.858Z,14.93
2023-04-08T02:44:46.256Z,14.30
2023-04-08T02:48:08.075Z,13.90
2023-04-08T02:51:30.620Z,14.47
2023-04-08T02:54:51.805Z,14.93
2023-04-08T02:58:13.091Z,13.97
2023-04-08T03:01:34.575Z,14.40
2023-04-08T03:04:56.100Z,14.50
2023-04-08T03:08:19.320Z,14.30
2023-04-08T03:11:40.602Z,14.80
2023-04-08T03:15:03.429Z,15.20
2023-04-08T03:18:25.545Z,15.43
2023-04-08T03:21:47.283Z,15.23
2023-04-08T03:25:11.890Z,14.57
2023-04-08T03:28:33.373Z,15.30
2023-04-08T03:31:55.157Z,14.53
2023-04-08T03:35:17.641Z,14.57
2023-04-08T03:38:38.917Z,14.33
2023-04-08T03:42:03.065Z,14.57
2023-04-08T03:45:24.953Z,14.83
2023-04-08T03:48:46.135Z,15.47
2023-04-08T03:52:07.583Z,16.30
2023-04-08T03:55:29.134Z,15.77
2023-04-08T03:58:52.001Z,15.83
2023-04-08T04:02:13.955Z,15.93
2023-04-08T04:05:35.631Z,16.13
2023-04-08T04:08:57.016Z,15.27
2023-04-08T04:12:18.510Z,16.40
2023-04-08T04:15:41.765Z,15.53
2023-04-08T04:19:03.182Z,16.57
2023-04-08T04:22:24.778Z,17.47
2023-04-08T04:25:46.200Z,18.53
2023-04-08T04:29:07.492Z,17.60
2023-04-08T04:32:30.072Z,17.60
2023-04-08T04:35:52.041Z,18.27
2023-04-08T04:39:13.493Z,18.23
2023-04-08T04:42:34.796Z,17.43
2023-04-08T04:45:57.035Z,18.47
2023-04-08T04:49:20.032Z,17.87
2023-04-08T04:52:41.512Z,18.23
2023-04-08T04:56:03.645Z,18.47
2023-04-08T04:59:25.437Z,18.10
2023-04-08T05:02:47.455Z,18.30
2023-04-08T05:06:11.793Z,18.77
2023-04-08T05:09:33.418Z,19.53
2023-04-08T05:12:54.657Z,19.70
2023-04-08T05:16:16.609Z,19.57
2023-04-08T05:19:38.157Z,20.00
2023-04-08T05:23:00.737Z,20.17
2023-04-08T05:26:22.876Z,20.37
2023-04-08T05:29:44.488Z,20.00
2023-04-08T05:33:05.942Z,19.77
2023-04-08T05:36:27.442Z,20.43
2023-04-08T05:39:50.683Z,20.93
2023-04-08T05:43:12.305Z,20.67
2023-04-08T05:46:34.078Z,21.77
2023-04-08T05:49:55.683Z,21.73
2023-04-08T05:53:17.000Z,19.93
2023-04-08T05:56:40.609Z,20.63
2023-04-08T06:00:02.456Z,20.37
2023-04-08T06:03:28.056Z,19.30
2023-04-08T06:06:50.076Z,21.20
2023-04-08T06:10:11.867Z,22.33
2023-04-08T06:13:34.830Z,21.07
2023-04-08T06:16:57.341Z,20.97
2023-04-08T06:20:18.835Z,21.50
2023-04-08T06:23:40.474Z,21.53
2023-04-08T06:27:01.844Z,21.03
2023-04-08T06:30:25.411Z,21.63
2023-04-08T06:33:46.951Z,22.07
2023-04-08T06:37:08.828Z,21.47
2023-04-08T06:40:30.717Z,21.27
2023-04-08T06:43:52.203Z,22.47
2023-04-08T06:47:17.008Z,22.37
2023-04-08T06:50:38.226Z,21.97
2023-04-08T06:54:00.028Z,23.00
2023-04-08T06:57:21.754Z,22.40
2023-04-08T07:00:43.779Z,23.77
2023-04-08T07:04:06.435Z,21.70
2023-04-08T07:07:28.339Z,23.03
2023-04-08T07:10:49.828Z,22.50
2023-04-08T07:14:11.744Z,21.13
2023-04-08T07:17:34.025Z,23.00
2023-04-08T07:20:57.925Z,22.37
2023-04-08T07:24:19.176Z,21.17
2023-04-08T07:27:40.550Z,21.20
2023-04-08T07:31:11.672Z,20.57
2023-04-08T07:34:33.366Z,21.10
2023-04-08T07:37:57.769Z,21.20
2023-04-08T07:41:18.904Z,21.17
2023-04-08T07:44:39.994Z,20.87
2023-04-08T07:48:01.966Z,21.83
2023-04-08T07:51:23.565Z,20.57
2023-04-08T07:54:46.684Z,21.33
2023-04-08T07:58:07.995Z,21.07
2023-04-08T08:01:31.262Z,22.33
2023-04-08T08:04:53.107Z,21.33
2023-04-08T08:08:14.783Z,21.20
2023-04-08T08:11:37.545Z,23.50
2023-04-08T08:14:59.607Z,22.40
2023-04-08T08:18:21.076Z,21.40
2023-04-08T08:21:42.334Z,23.57
2023-04-08T08:25:04.585Z,22.70
2023-04-08T08:28:27.430Z,22.50
2023-04-08T08:31:49.243Z,22.30
2023-04-08T08:35:10.946Z,22.30
2023-04-08T08:38:32.704Z,22.60
2023-04-08T08:41:54.275Z,22.63
2023-04-08T08:45:17.803Z,23.20
2023-04-08T08:48:40.738Z,23.23
2023-04-08T08:52:02.511Z,23.53
2023-04-08T08:58:49.226Z,22.67
2023-04-08T09:02:25.419Z,23.07
2023-04-08T09:05:54.103Z,23.70
2023-04-08T09:09:16.052Z,25.17
2023-04-08T09:12:55.412Z,23.53
2023-04-08T09:16:18.890Z,22.47
2023-04-08T09:20:02.071Z,22.73
2023-04-08T09:27:42.430Z,21.37
2023-04-08T09:31:19.838Z,22.77
2023-04-08T09:34:43.013Z,21.60
2023-04-08T09:38:04.470Z,22.83
2023-04-08T09:41:29.882Z,22.63
2023-04-08T09:44:51.808Z,23.80
2023-04-08T09:48:18.512Z,23.20
2023-04-08T09:51:49.863Z,24.27
2023-04-08T09:55:13.593Z,24.27
2023-04-08T09:58:42.861Z,25.43
2023-04-08T10:02:08.881Z,25.40
2023-04-08T10:05:32.215Z,26.17
2023-04-08T10:08:55.374Z,25.60
2023-04-08T10:12:16.556Z,26.90
2023-04-08T10:15:40.893Z,25.73
2023-04-08T10:19:02.691Z,26.97
2023-04-08T10:22:49.921Z,25.63
2023-04-08T10:26:33.570Z,27.40
2023-04-08T10:29:55.014Z,25.57
2023-04-08T10:33:18.318Z,25.83
2023-04-08T10:36:40.069Z,27.57
2023-04-08T10:40:01.794Z,26.27
2023-04-08T10:43:24.456Z,25.83
2023-04-08T10:46:46.811Z,23.80
2023-04-08T10:50:14.856Z,22.33
2023-04-08T10:53:37.775Z,24.20
2023-04-08T10:56:59.935Z,23.87
2023-04-08T11:00:35.698Z,23.13
2023-04-08T11:03:57.595Z,21.23
2023-04-08T11:07:21.713Z,21.10
2023-04-08T11:10:45.075Z,20.57
2023-04-08T11:14:07.398Z,19.77
2023-04-08T11:17:31.564Z,18.43
2023-04-08T11:20:53.845Z,17.97
2023-04-08T11:24:16.483Z,20.17
2023-04-08T11:27:39.567Z,21.80
2023-04-08T11:31:01.274Z,22.95
2023-04-08T11:34:26.270Z,21.52
2023-04-08T11:37:49.839Z,19.70
2023-04-08T11:41:12.528Z,18.13
2023-04-08T11:44:34.546Z,20.48
2023-04-08T11:47:56.179Z,21.00
2023-04-08T11:51:18.976Z,20.87
2023-04-08T11:54:43.277Z,20.40
2023-04-08T11:58:07.591Z,20.35
2023-04-08T12:01:29.291Z,20.75
2023-04-08T12:04:51.132Z,19.13
2023-04-08T12:08:14.173Z,19.25
2023-04-08T12:11:35.940Z,18.75
2023-04-08T12:14:57.653Z,17.90
2023-04-08T12:18:19.159Z,17.80
2023-04-08T12:21:40.836Z,17.58
2023-04-08T12:25:04.250Z,16.83
2023-04-08T12:28:25.849Z,15.13
2023-04-08T12:31:47.277Z,13.90
2023-04-08T12:35:10.092Z,14.50
2023-04-08T12:38:31.557Z,13.75
2023-04-08T12:41:54.486Z,14.63
2023-04-08T12:45:16.241Z,14.80
2023-04-08T12:48:37.998Z,14.98
2023-04-08T12:52:00.010Z,13.02
2023-04-08T12:55:24.914Z,14.32
2023-04-08T12:58:47.737Z,13.23
2023-04-08T13:02:09.293Z,13.98
2023-04-08T13:05:42.876Z,14.23
2023-04-08T13:09:05.413Z,14.20
2023-04-08T13:12:27.217Z,13.65
2023-04-08T13:15:50.867Z,12.90
2023-04-08T13:19:12.711Z,13.85
2023-04-08T13:22:34.563Z,13.43
2023-04-08T13:25:56.226Z,13.73
2023-04-08T13:29:17.519Z,15.07
2023-04-08T13:32:40.750Z,15.10
2023-04-08T13:36:02.393Z,16.02
2023-04-08T13:39:23.620Z,14.48
2023-04-08T13:42:45.747Z,13.63
2023-04-08T13:46:08.105Z,13.80
2023-04-08T13:49:31.569Z,13.30
2023-04-08T13:52:53.153Z,13.63
2023-04-08T13:56:14.416Z,14.40
2023-04-08T13:59:36.032Z,15.57
2023-04-08T14:02:57.749Z,17.67
2023-04-08T14:06:20.536Z,16.63
2023-04-08T14:09:41.843Z,17.30
2023-04-08T14:13:03.628Z,17.67
2023-04-08T14:16:25.037Z,16.35
2023-04-08T14:19:46.807Z,14.85
2023-04-08T14:23:09.660Z,15.07
2023-04-08T14:26:33.180Z,15.85
2023-04-08T14:29:54.889Z,19.83
2023-04-08T14:33:16.298Z,19.05
2023-04-08T14:36:38.541Z,17.95
2023-04-08T14:40:01.143Z,17.25
2023-04-08T14:43:22.538Z,18.55
2023-04-08T14:46:43.909Z,19.15
2023-04-08T14:50:06.609Z,19.63
2023-04-08T14:53:28.126Z,18.58
2023-04-08T14:56:51.394Z,21.00
2023-04-08T15:00:14.301Z,20.25
2023-04-08T15:03:36.115Z,22.55
2023-04-08T15:06:57.831Z,23.13
2023-04-08T15:10:19.683Z,23.67
2023-04-08T15:13:43.153Z,22.33
2023-04-08T15:17:04.904Z,21.90
2023-04-08T15:20:26.497Z,20.80
2023-04-08T15:23:47.824Z,19.55
2023-04-08T15:27:09.405Z,18.80
2023-04-08T15:30:35.396Z,18.30
2023-04-08T15:33:58.508Z,17.98
2023-04-08T15:37:20.347Z,18.23
2023-04-08T15:40:43.378Z,16.02
2023-04-08T15:44:04.656Z,24.40
2023-04-08T15:47:27.532Z,20.33
2023-04-08T15:50:50.458Z,18.45
2023-04-08T15:54:12.291Z,19.20
2023-04-08T15:57:36.022Z,18.95
2023-04-08T16:00:57.777Z,19.35
2023-04-08T16:04:20.537Z,20.08
2023-04-08T16:07:43.109Z,20.02
2023-04-08T16:11:08.055Z,19.52
2023-04-08T16:14:30.767Z,21.35
2023-04-08T16:17:53.558Z,20.88
2023-04-08T16:21:17.245Z,20.60
2023-04-08T16:24:38.876Z,21.98
2023-04-08T16:28:00.494Z,21.55
2023-04-08T16:31:22.306Z,20.92
2023-04-08T16:34:43.734Z,21.38
2023-04-08T16:38:06.537Z,20.80
2023-04-08T16:41:28.133Z,19.95
2023-04-08T16:44:49.921Z,19.40
2023-04-08T16:48:12.639Z,19.40
2023-04-08T16:51:34.381Z,19.70
2023-04-08T16:54:57.687Z,20.83
2023-04-08T16:58:19.793Z,20.13
2023-04-08T17:01:41.702Z,19.23
2023-04-08T17:05:03.383Z,21.08
2023-04-08T17:08:25.968Z,19.90
2023-04-08T17:11:48.576Z,19.85
2023-04-08T17:15:11.452Z,20.23
2023-04-08T17:18:33.255Z,18.75
2023-04-08T17:21:55.039Z,19.00
2023-04-08T17:25:16.586Z,18.27
2023-04-08T17:28:39.872Z,17.25
2023-04-08T17:32:01.679Z,18.52
2023-04-08T17:35:23.030Z,17.50
2023-04-08T17:38:44.311Z,18.80
2023-04-08T17:42:05.960Z,18.58
2023-04-08T17:45:28.917Z,18.67
2023-04-08T17:48:50.355Z,18.13
2023-04-08T17:52:12.113Z,19.05
2023-04-08T17:55:33.454Z,20.30
2023-04-08T17:58:54.753Z,18.92
2023-04-08T18:02:17.923Z,17.45
2023-04-08T18:05:39.173Z,16.90
2023-04-08T18:09:00.908Z,17.63
2023-04-08T18:12:22.793Z,17.50
2023-04-08T18:15:44.411Z,18.50
2023-04-08T18:19:07.114Z,18.60
2023-04-08T18:22:28.894Z,18.45
2023-04-08T18:25:50.858Z,17.90
2023-04-08T18:29:12.463Z,18.88
2023-04-08T18:32:34.410Z,17.67
2023-04-08T18:35:59.552Z,17.55
2023-04-08T18:39:22.602Z,17.27
2023-04-08T18:42:44.111Z,16.30
2023-04-08T18:46:05.787Z,17.88
2023-04-08T18:49:30.224Z,16.92
2023-04-08T18:52:54.054Z,16.63
2023-04-08T18:56:16.081Z,17.55
2023-04-08T18:59:37.770Z,17.52
2023-04-08T19:02:59.427Z,16.70
2023-04-08T19:06:22.564Z,17.95
2023-04-08T19:09:45.589Z,17.08
2023-04-08T19:13:06.864Z,17.65
2023-04-08T19:16:28.413Z,16.83
2023-04-08T19:19:49.957Z,17.73
2023-04-08T19:23:11.190Z,17.70
2023-04-08T19:26:34.715Z,18.42
2023-04-08T19:29:56.251Z,17.98
2023-04-08T19:33:17.457Z,16.60
2023-04-08T19:36:38.862Z,17.38
2023-04-08T19:40:00.601Z,17.15
2023-04-08T19:43:23.572Z,17.15
2023-04-08T19:46:45.037Z,17.40
2023-04-08T19:50:08.439Z,17.83
2023-04-08T19:53:30.636Z,17.33
2023-04-08T19:56:52.088Z,17.80
2023-04-08T20:00:15.551Z,18.30
2023-04-08T20:03:37.367Z,17.35
2023-04-08T20:06:58.731Z,17.90
2023-04-08T20:10:20.619Z,17.77
2023-04-08T20:13:42.373Z,18.27
2023-04-08T20:17:05.917Z,19.20
2023-04-08T20:20:29.912Z,19.27
2023-04-08T20:23:52.035Z,19.23
2023-04-08T20:27:13.408Z,20.17
2023-04-08T20:30:34.820Z,19.30
2023-04-08T20:33:58.125Z,20.63
2023-04-08T20:37:19.632Z,19.50
2023-04-08T20:40:43.904Z,19.95
2023-04-08T20:44:08.557Z,19.67
2023-04-08T20:47:30.193Z,18.97
2023-04-08T20:50:52.831Z,20.47
2023-04-08T20:54:14.547Z,19.83
2023-04-08T20:57:35.857Z,18.73
2023-04-08T21:00:58.993Z,19.37
2023-04-08T21:04:20.940Z,19.73
2023-04-08T21:07:44.728Z,20.27
2023-04-08T21:11:06.642Z,19.23
2023-04-08T21:14:30.967Z,19.10
2023-04-08T21:17:52.803Z,19.93
2023-04-08T21:21:14.033Z,21.53
2023-04-08T21:24:36.697Z,19.00
2023-04-08T21:27:58.457Z,19.23
2023-04-08T21:31:20.178Z,19.33
2023-04-08T21:34:41.920Z,18.17
2023-04-08T21:38:03.782Z,18.57
2023-04-08T21:41:28.422Z,18.83
2023-04-08T21:44:52.108Z,17.40
2023-04-08T21:48:14.280Z,18.60
2023-04-08T21:51:35.879Z,17.87
2023-04-08T21:54:57.772Z,18.17
2023-04-08T21:58:20.871Z,18.23
2023-04-08T22:01:42.556Z,19.93
2023-04-08T22:05:04.280Z,18.67
2023-04-08T22:08:26.192Z,19.60
2023-04-08T22:11:47.794Z,17.90
2023-04-08T22:15:11.696Z,18.50
2023-04-08T22:18:32.956Z,18.53
2023-04-08T22:21:54.693Z,17.60
2023-04-08T22:25:16.163Z,18.50
2023-04-08T22:28:37.662Z,19.00
2023-04-08T22:32:00.382Z,18.63
2023-04-08T22:35:21.683Z,19.60
2023-04-08T22:38:43.526Z,18.60
2023-04-08T22:42:05.411Z,24.20
2023-04-08T22:45:27.087Z,26.60
2023-04-08T22:48:50.361Z,24.60
2023-04-08T22:52:12.352Z,23.33
2023-04-08T22:55:34.238Z,20.63
2023-04-08T22:58:56.028Z,21.07
2023-04-08T23:02:17.669Z,21.13
2023-04-08T23:05:40.933Z,20.33
2023-04-08T23:09:02.799Z,22.10
2023-04-08T23:12:24.580Z,20.80
2023-04-08T23:15:46.521Z,21.53
2023-04-08T23:19:07.756Z,20.07
2023-04-08T23:22:30.920Z,19.87
2023-04-08T23:25:55.570Z,20.33
2023-04-08T23:29:17.817Z,18.93
2023-04-08T23:32:39.254Z,21.53
2023-04-08T23:36:00.652Z,20.30
2023-04-08T23:39:24.493Z,17.63
2023-04-08T23:42:46.201Z,17.73
2023-04-08T23:46:07.852Z,17.87
2023-04-08T23:49:29.899Z,18.23
2023-04-08T23:52:51.227Z,18.30
2023-04-08T23:56:13.870Z,18.63
2023-04-08T23:59:35.289Z,17.97
